createdAt,value
2018-06-09T00:02:20.118Z,16.37
2018-06-09T00:04:48.307Z,24.23
2018-06-09T00:07:16.525Z,20.47
2018-06-09T00:15:28.480Z,20.90
2018-06-09T00:17:56.681Z,13.60
2018-06-09T00:20:24.889Z,15.27
2018-06-09T00:22:53.125Z,13.30
2018-06-09T00:25:21.286Z,10.63
2018-06-09T00:27:49.497Z,13.53
2018-06-09T00:30:17.766Z,13.90
2018-06-09T00:32:46.017Z,15.07
2018-06-09T00:35:14.898Z,14.53
2018-06-09T00:37:43.038Z,11.90
2018-06-09T00:40:11.202Z,15.83
2018-06-09T00:42:39.413Z,13.47
2018-06-09T00:45:07.622Z,13.40
2018-06-09T00:47:35.826Z,12.73
2018-06-09T00:50:04.045Z,14.37
2018-06-09T00:52:32.235Z,13.07
2018-06-09T00:55:00.445Z,12.60
2018-06-09T00:57:28.663Z,13.70
2018-06-09T00:59:56.866Z,16.90
2018-06-09T01:02:25.153Z,20.37
2018-06-09T01:04:53.357Z,14.00
2018-06-09T01:07:21.574Z,11.57
2018-06-09T01:09:49.741Z,15.40
2018-06-09T01:12:17.921Z,13.70
2018-06-09T01:14:46.122Z,14.67
2018-06-09T01:17:14.334Z,12.33
2018-06-09T01:19:42.530Z,12.63
2018-06-09T01:22:10.714Z,13.47
2018-06-09T01:24:38.894Z,14.70
2018-06-09T01:27:07.090Z,11.90
2018-06-09T01:29:35.287Z,14.57
2018-06-09T01:32:03.525Z,13.80
2018-06-09T01:34:31.669Z,13.73
2018-06-09T01:36:59.833Z,18.00
2018-06-09T01:39:28.593Z,13.40
2018-06-09T01:41:56.826Z,14.27
2018-06-09T01:44:24.995Z,12.50
2018-06-09T01:46:53.470Z,16.63
2018-06-09T01:49:21.633Z,14.23
2018-06-09T01:51:49.885Z,14.10
2018-06-09T01:54:18.071Z,12.57
2018-06-09T01:56:46.263Z,13.23
2018-06-09T01:59:14.437Z,12.10
2018-06-09T02:01:42.381Z,11.87
2018-06-09T02:04:10.557Z,12.40
2018-06-09T02:06:38.758Z,14.33
2018-06-09T02:09:08.877Z,14.80
2018-06-09T02:11:37.059Z,14.43
2018-06-09T02:14:05.309Z,15.73
2018-06-09T02:16:33.515Z,13.30
2018-06-09T02:19:01.773Z,14.90
2018-06-09T02:21:29.966Z,12.00
2018-06-09T02:23:58.127Z,16.03
2018-06-09T02:26:26.359Z,14.83
2018-06-09T02:28:54.555Z,13.43
2018-06-09T02:31:22.737Z,10.30
2018-06-09T02:33:50.890Z,13.80
2018-06-09T02:36:19.114Z,15.50
2018-06-09T02:38:47.303Z,23.13
2018-06-09T02:41:15.509Z,12.47
2018-06-09T02:43:43.690Z,17.87
2018-06-09T02:46:11.903Z,14.33
2018-06-09T02:48:40.082Z,14.50
2018-06-09T02:51:08.298Z,11.97
2018-06-09T02:53:36.510Z,18.00
2018-06-09T02:56:04.745Z,13.20
2018-06-09T02:58:33.050Z,14.70
2018-06-09T03:01:01.244Z,19.80
2018-06-09T03:03:29.450Z,13.80
2018-06-09T03:05:57.583Z,12.47
2018-06-09T03:08:25.537Z,15.60
2018-06-09T03:10:53.709Z,11.97
2018-06-09T03:13:21.899Z,15.20
2018-06-09T03:15:50.091Z,12.93
2018-06-09T03:18:18.253Z,11.17
2018-06-09T03:20:46.465Z,15.27
2018-06-09T03:23:14.651Z,14.73
2018-06-09T03:25:42.841Z,14.33
2018-06-09T03:28:11.085Z,16.10
2018-06-09T03:30:39.370Z,12.50
2018-06-09T03:33:07.560Z,14.63
2018-06-09T03:35:35.729Z,13.37
2018-06-09T03:38:03.921Z,14.33
2018-06-09T03:40:32.118Z,13.70
2018-06-09T03:43:00.317Z,14.77
2018-06-09T03:45:28.499Z,14.07
2018-06-09T03:47:56.698Z,14.20
2018-06-09T03:50:24.953Z,14.70
2018-06-09T03:52:53.154Z,15.60
2018-06-09T03:55:21.354Z,17.93
2018-06-09T03:57:49.546Z,11.57
2018-06-09T04:00:17.738Z,13.43
2018-06-09T04:02:45.982Z,17.53
2018-06-09T04:05:14.141Z,14.00
2018-06-09T04:07:42.326Z,11.60
2018-06-09T04:10:10.505Z,14.60
2018-06-09T04:12:38.725Z,13.70
2018-06-09T04:15:06.931Z,12.33
2018-06-09T04:17:35.198Z,12.63
2018-06-09T04:20:03.470Z,16.07
2018-06-09T04:22:31.638Z,12.97
2018-06-09T04:24:59.809Z,15.70
2018-06-09T04:27:28.010Z,13.13
2018-06-09T04:29:56.223Z,16.83
2018-06-09T04:32:24.469Z,14.80
2018-06-09T04:34:52.697Z,13.47
2018-06-09T04:37:20.898Z,12.93
2018-06-09T04:39:49.107Z,12.97
2018-06-09T04:42:17.254Z,15.80
2018-06-09T04:44:45.425Z,14.93
2018-06-09T04:47:13.598Z,12.83
2018-06-09T04:49:41.810Z,12.77
2018-06-09T04:52:10.020Z,11.30
2018-06-09T04:54:38.193Z,14.33
2018-06-09T04:57:06.449Z,11.47
2018-06-09T04:59:34.481Z,13.53
2018-06-09T05:02:02.678Z,12.90
2018-06-09T05:04:30.649Z,12.57
2018-06-09T05:06:58.873Z,14.30
2018-06-09T05:09:27.040Z,11.80
2018-06-09T05:11:55.256Z,14.80
2018-06-09T05:14:23.441Z,12.97
2018-06-09T05:16:51.653Z,13.47
2018-06-09T05:19:20.738Z,19.53
2018-06-09T05:21:50.506Z,14.10
2018-06-09T05:24:23.044Z,12.00
2018-06-09T05:26:51.660Z,11.97
2018-06-09T05:29:19.852Z,18.10
2018-06-09T05:31:48.050Z,12.20
2018-06-09T05:34:18.453Z,13.83
2018-06-09T05:36:46.652Z,15.73
2018-06-09T05:39:14.869Z,15.93
2018-06-09T05:41:43.081Z,12.13
2018-06-09T05:44:11.285Z,13.50
2018-06-09T05:46:39.492Z,13.53
2018-06-09T05:49:07.773Z,15.73
2018-06-09T05:51:37.270Z,17.70
2018-06-09T05:54:05.477Z,11.07
2018-06-09T05:56:35.602Z,22.13
2018-06-09T05:59:05.403Z,14.00
2018-06-09T06:01:35.914Z,14.40
2018-06-09T06:04:06.687Z,13.00
2018-06-09T06:06:35.006Z,12.03
2018-06-09T06:09:04.183Z,12.73
2018-06-09T06:11:40.715Z,14.63
2018-06-09T06:14:16.225Z,12.60
2018-06-09T06:16:46.137Z,16.10
2018-06-09T06:19:16.105Z,13.97
2018-06-09T06:21:45.671Z,12.57
2018-06-09T06:24:15.858Z,13.03
2018-06-09T06:26:46.162Z,19.53
2018-06-09T06:29:15.929Z,14.33
2018-06-09T06:31:45.652Z,14.07
2018-06-09T06:34:13.957Z,14.70
2018-06-09T06:36:42.163Z,16.77
2018-06-09T06:39:10.368Z,14.57
2018-06-09T06:41:38.719Z,17.60
2018-06-09T06:44:06.956Z,13.60
2018-06-09T06:46:35.130Z,13.73
2018-06-09T06:49:03.854Z,11.90
2018-06-09T06:51:32.121Z,13.90
2018-06-09T06:54:00.386Z,14.77
2018-06-09T06:56:28.618Z,12.50
2018-06-09T06:58:56.816Z,15.97
2018-06-09T07:01:25.072Z,15.47
2018-06-09T07:03:53.377Z,15.33
2018-06-09T07:06:21.589Z,15.13
2018-06-09T07:08:49.801Z,14.77
2018-06-09T07:11:18.071Z,12.13
2018-06-09T07:13:46.217Z,15.03
2018-06-09T07:16:14.451Z,13.13
2018-06-09T07:18:42.736Z,12.70
2018-06-09T07:21:10.881Z,19.10
2018-06-09T07:23:39.089Z,15.87
2018-06-09T07:26:07.281Z,13.13
2018-06-09T07:28:35.494Z,18.00
2018-06-09T07:31:03.658Z,14.50
2018-06-09T07:33:31.809Z,12.67
2018-06-09T07:36:00.145Z,13.50
2018-06-09T07:38:28.345Z,15.47
2018-06-09T07:40:56.873Z,14.70
2018-06-09T07:43:25.046Z,16.60
2018-06-09T07:45:53.246Z,14.20
2018-06-09T07:48:21.399Z,10.70
2018-06-09T07:50:49.592Z,14.97
2018-06-09T07:53:17.761Z,17.33
2018-06-09T07:55:45.933Z,14.27
2018-06-09T07:58:14.165Z,13.63
2018-06-09T08:00:42.335Z,15.30
2018-06-09T08:03:10.525Z,14.93
2018-06-09T08:05:38.707Z,15.70
2018-06-09T08:08:06.910Z,12.83
2018-06-09T08:10:35.110Z,11.40
2018-06-09T08:13:03.297Z,12.30
2018-06-09T08:15:31.466Z,18.97
2018-06-09T08:17:59.634Z,12.80
2018-06-09T08:20:27.929Z,11.13
2018-06-09T08:22:56.122Z,10.10
2018-06-09T08:25:24.353Z,13.20
2018-06-09T08:27:52.569Z,15.70
2018-06-09T08:30:20.797Z,13.77
2018-06-09T08:32:49.033Z,16.30
2018-06-09T08:35:17.260Z,14.47
2018-06-09T08:37:45.567Z,19.10
2018-06-09T08:40:13.803Z,8.40
2018-06-09T08:42:41.996Z,14.13
2018-06-09T08:45:10.205Z,12.33
2018-06-09T08:47:38.373Z,13.10
2018-06-09T08:50:06.596Z,13.30
2018-06-09T08:52:34.822Z,11.50
2018-06-09T08:55:03.067Z,11.07
2018-06-09T08:57:31.293Z,13.73
2018-06-09T08:59:59.466Z,12.80
2018-06-09T09:02:27.610Z,16.83
2018-06-09T09:04:55.925Z,13.83
2018-06-09T09:07:24.075Z,15.00
2018-06-09T09:09:52.245Z,10.73
2018-06-09T09:12:20.458Z,10.70
2018-06-09T09:14:48.622Z,11.87
2018-06-09T09:17:16.856Z,13.10
2018-06-09T09:19:45.046Z,15.17
2018-06-09T09:22:13.205Z,19.60
2018-06-09T09:24:41.422Z,13.30
2018-06-09T09:27:09.561Z,11.60
2018-06-09T09:29:37.815Z,12.90
2018-06-09T09:32:06.100Z,12.67
2018-06-09T09:34:35.001Z,15.87
2018-06-09T09:37:03.262Z,10.30
2018-06-09T09:39:31.495Z,16.23
2018-06-09T09:41:59.736Z,12.50
2018-06-09T09:44:28.002Z,12.80
2018-06-09T09:46:56.214Z,13.70
2018-06-09T09:49:24.445Z,14.43
2018-06-09T09:51:52.658Z,14.00
2018-06-09T09:54:20.833Z,15.20
2018-06-09T09:56:49.058Z,13.80
2018-06-09T09:59:17.258Z,16.30
2018-06-09T10:01:45.497Z,14.10
2018-06-09T10:04:13.721Z,11.07
2018-06-09T10:06:42.009Z,13.03
2018-06-09T10:09:10.170Z,13.90
2018-06-09T10:11:38.397Z,23.93
2018-06-09T10:14:06.541Z,16.90
2018-06-09T10:16:34.765Z,15.20
2018-06-09T10:19:03.041Z,14.20
2018-06-09T10:21:31.209Z,12.30
2018-06-09T10:23:59.361Z,13.43
2018-06-09T10:26:27.539Z,10.47
2018-06-09T10:28:55.785Z,11.60
2018-06-09T10:31:23.933Z,11.07
2018-06-09T10:33:52.105Z,16.37
2018-06-09T10:36:20.330Z,11.17
2018-06-09T10:38:48.580Z,16.40
2018-06-09T10:41:17.426Z,12.17
2018-06-09T10:43:45.706Z,12.13
2018-06-09T10:46:13.930Z,12.67
2018-06-09T10:48:42.118Z,12.37
2018-06-09T10:51:10.312Z,11.43
2018-06-09T10:53:38.550Z,14.53
2018-06-09T10:56:06.765Z,13.47
2018-06-09T10:58:34.997Z,13.90
2018-06-09T11:01:03.477Z,12.00
2018-06-09T11:03:31.626Z,12.53
2018-06-09T11:05:59.890Z,12.40
2018-06-09T11:08:28.132Z,11.67
2018-06-09T11:10:56.434Z,12.37
2018-06-09T11:13:24.618Z,14.70
2018-06-09T11:15:52.793Z,11.97
2018-06-09T11:18:21.023Z,15.63
2018-06-09T11:20:49.154Z,10.53
2018-06-09T11:23:17.337Z,10.47
2018-06-09T11:25:45.587Z,11.97
2018-06-09T11:28:13.730Z,13.20
2018-06-09T11:30:42.042Z,10.83
2018-06-09T11:33:10.179Z,12.03
2018-06-09T11:35:38.378Z,13.63
2018-06-09T11:38:06.601Z,10.83
2018-06-09T11:40:34.830Z,12.27
2018-06-09T11:43:03.045Z,12.30
2018-06-09T11:45:31.232Z,10.40
2018-06-09T11:48:00.336Z,14.30
2018-06-09T11:50:28.594Z,11.53
2018-06-09T11:52:57.421Z,11.80
2018-06-09T11:55:25.690Z,9.97
2018-06-09T11:57:57.636Z,13.30
2018-06-09T12:00:25.994Z,10.50
2018-06-09T12:02:54.350Z,13.70
2018-06-09T12:05:23.643Z,15.27
2018-06-09T12:07:51.790Z,12.80
2018-06-09T12:10:20.002Z,13.07
2018-06-09T12:12:50.449Z,12.87
2018-06-09T12:15:18.654Z,25.67
2018-06-09T12:17:51.603Z,14.10
2018-06-09T12:20:19.851Z,24.83
2018-06-09T12:22:48.097Z,31.00
2018-06-09T12:25:16.379Z,39.50
2018-06-09T12:27:44.619Z,23.40
2018-06-09T12:30:12.850Z,32.33
2018-06-09T12:32:41.883Z,23.50
2018-06-09T12:35:10.234Z,19.10
2018-06-09T12:37:39.525Z,23.90
2018-06-09T12:40:07.894Z,20.20
2018-06-09T12:42:36.162Z,26.07
2018-06-09T12:45:04.412Z,19.33
2018-06-09T12:47:33.593Z,16.67
2018-06-09T12:50:01.995Z,15.80
2018-06-09T12:52:30.222Z,13.93
2018-06-09T12:54:58.415Z,12.40
2018-06-09T12:57:26.649Z,13.93
2018-06-09T12:59:54.794Z,13.50
2018-06-09T13:02:23.014Z,12.53
2018-06-09T13:04:51.201Z,12.73
2018-06-09T13:07:19.446Z,15.93
2018-06-09T13:09:47.646Z,12.50
2018-06-09T13:12:15.769Z,12.00
2018-06-09T13:14:43.982Z,11.83
2018-06-09T13:17:12.157Z,14.97
2018-06-09T13:19:40.995Z,15.00
2018-06-09T13:22:09.190Z,11.37
2018-06-09T13:24:37.537Z,15.27
2018-06-09T13:27:05.742Z,13.50
2018-06-09T13:29:33.917Z,13.20
2018-06-09T13:32:02.137Z,11.00
2018-06-09T13:34:30.374Z,29.80
2018-06-09T13:36:58.801Z,9.43
2018-06-09T13:39:27.017Z,10.20
2018-06-09T13:41:55.289Z,10.70
2018-06-09T13:44:23.461Z,13.10
2018-06-09T13:46:51.679Z,10.33
2018-06-09T13:49:19.777Z,11.70
2018-06-09T13:51:47.950Z,9.87
2018-06-09T13:54:16.655Z,17.33
2018-06-09T13:56:44.636Z,12.63
2018-06-09T13:59:12.909Z,11.90
2018-06-09T14:01:41.106Z,8.77
2018-06-09T14:04:09.373Z,14.30
2018-06-09T14:06:37.604Z,14.40
2018-06-09T14:09:07.473Z,16.00
2018-06-09T14:11:35.820Z,10.33
2018-06-09T14:14:04.030Z,9.57
2018-06-09T14:16:32.206Z,10.63
2018-06-09T14:19:00.499Z,11.27
2018-06-09T14:21:28.690Z,7.80
2018-06-09T14:23:56.862Z,10.20
2018-06-09T14:26:25.071Z,11.90
2018-06-09T14:28:53.218Z,10.47
2018-06-09T14:31:21.445Z,10.50
2018-06-09T14:33:49.609Z,12.50
2018-06-09T14:36:17.821Z,9.93
2018-06-09T14:38:46.098Z,10.30
2018-06-09T14:41:14.191Z,9.43
2018-06-09T14:43:42.458Z,11.37
2018-06-09T14:46:10.630Z,9.57
2018-06-09T14:48:38.848Z,9.97
2018-06-09T14:51:06.996Z,10.73
2018-06-09T14:53:35.145Z,12.77
2018-06-09T14:56:03.329Z,10.40
2018-06-09T14:58:31.512Z,15.70
2018-06-09T15:00:59.704Z,10.57
2018-06-09T15:03:27.855Z,14.73
2018-06-09T15:05:56.045Z,11.10
2018-06-09T15:08:24.269Z,10.17
2018-06-09T15:10:52.503Z,10.37
2018-06-09T15:13:20.657Z,13.60
2018-06-09T15:15:48.830Z,13.50
2018-06-09T15:18:17.056Z,14.80
2018-06-09T15:20:45.253Z,13.20
2018-06-09T15:23:13.417Z,12.60
2018-06-09T15:25:41.661Z,9.50
2018-06-09T15:28:09.991Z,11.20
2018-06-09T15:30:38.178Z,10.80
2018-06-09T15:33:06.329Z,10.40
2018-06-09T15:35:34.515Z,8.90
2018-06-09T15:38:02.741Z,12.37
2018-06-09T15:40:31.041Z,11.50
2018-06-09T15:42:59.257Z,8.10
2018-06-09T15:45:27.462Z,8.07
2018-06-09T15:47:55.705Z,7.03
2018-06-09T15:50:23.878Z,8.00
2018-06-09T15:52:52.097Z,7.23
2018-06-09T15:55:20.286Z,8.37
2018-06-09T15:57:48.465Z,8.53
2018-06-09T16:00:17.666Z,6.60
2018-06-09T16:02:50.972Z,9.90
2018-06-09T16:05:20.465Z,10.97
2018-06-09T16:08:03.008Z,8.07
2018-06-09T16:10:40.417Z,5.80
2018-06-09T16:13:08.650Z,9.40
2018-06-09T16:15:40.076Z,8.57
2018-06-09T16:18:10.090Z,6.90
2018-06-09T16:20:43.729Z,8.47
2018-06-09T16:23:13.255Z,9.00
2018-06-09T16:25:44.413Z,6.77
2018-06-09T16:28:12.697Z,6.93
2018-06-09T16:30:40.855Z,6.33
2018-06-09T16:33:09.062Z,9.67
2018-06-09T16:35:37.298Z,9.23
2018-06-09T16:38:05.478Z,8.33
2018-06-09T16:40:33.681Z,8.73
2018-06-09T16:43:01.888Z,10.17
2018-06-09T16:45:30.062Z,14.47
2018-06-09T16:47:58.267Z,15.37
2018-06-09T16:50:26.491Z,11.40
2018-06-09T16:52:54.734Z,14.80
2018-06-09T16:55:22.938Z,9.00
2018-06-09T16:57:51.121Z,6.10
2018-06-09T17:00:19.390Z,7.20
2018-06-09T17:02:47.730Z,7.77
2018-06-09T17:05:17.411Z,7.30
2018-06-09T17:07:45.882Z,9.97
2018-06-09T17:10:15.972Z,8.03
2018-06-09T17:12:45.595Z,6.90
2018-06-09T17:15:14.580Z,8.23
2018-06-09T17:17:43.874Z,6.90
2018-06-09T17:20:12.432Z,8.40
2018-06-09T17:22:40.702Z,8.83
2018-06-09T17:25:09.442Z,8.50
2018-06-09T17:27:37.658Z,8.40
2018-06-09T17:30:05.853Z,8.87
2018-06-09T17:32:34.046Z,8.40
2018-06-09T17:35:02.023Z,8.70
2018-06-09T17:37:30.221Z,9.40
2018-06-09T17:39:58.369Z,9.10
2018-06-09T17:42:26.625Z,9.70
2018-06-09T17:44:54.846Z,8.30
2018-06-09T17:47:23.061Z,7.53
2018-06-09T17:49:51.230Z,8.70
2018-06-09T17:52:19.442Z,7.50
2018-06-09T17:54:47.686Z,8.30
2018-06-09T17:57:15.885Z,8.00
2018-06-09T17:59:44.092Z,7.60
2018-06-09T18:02:12.269Z,8.13
2018-06-09T18:04:40.469Z,10.60
2018-06-09T18:07:08.756Z,11.67
2018-06-09T18:09:36.954Z,8.90
2018-06-09T18:12:05.320Z,14.87
2018-06-09T18:14:36.295Z,9.87
2018-06-09T18:17:05.978Z,11.63
2018-06-09T18:19:36.238Z,12.63
2018-06-09T18:22:04.586Z,11.33
2018-06-09T18:24:32.757Z,13.53
2018-06-09T18:27:00.986Z,8.40
2018-06-09T18:29:29.190Z,10.70
2018-06-09T18:31:57.318Z,14.00
2018-06-09T18:34:25.509Z,9.87
2018-06-09T18:36:53.737Z,11.53
2018-06-09T18:39:22.006Z,7.67
2018-06-09T18:41:50.210Z,9.73
2018-06-09T18:44:22.398Z,8.67
2018-06-09T18:46:50.686Z,9.70
2018-06-09T18:49:19.925Z,7.63
2018-06-09T18:51:53.863Z,9.37
2018-06-09T18:54:22.062Z,9.60
2018-06-09T18:56:50.390Z,8.70
2018-06-09T18:59:18.636Z,10.80
2018-06-09T19:01:46.761Z,7.63
2018-06-09T19:04:15.002Z,6.57
2018-06-09T19:06:43.165Z,9.70
2018-06-09T19:09:11.366Z,7.73
2018-06-09T19:11:39.569Z,6.80
2018-06-09T19:14:07.772Z,10.73
2018-06-09T19:16:36.046Z,6.77
2018-06-09T19:19:04.213Z,9.00
2018-06-09T19:21:32.430Z,8.40
2018-06-09T19:24:00.595Z,12.23
2018-06-09T19:26:28.776Z,11.77
2018-06-09T19:28:56.928Z,12.00
2018-06-09T19:31:26.444Z,13.13
2018-06-09T19:33:56.423Z,10.50
2018-06-09T19:36:26.038Z,10.63
2018-06-09T19:38:55.823Z,8.90
2018-06-09T19:41:24.061Z,8.23
2018-06-09T19:43:52.274Z,11.40
2018-06-09T19:46:20.530Z,7.57
2018-06-09T19:48:48.690Z,9.73
2018-06-09T19:51:16.997Z,7.63
2018-06-09T19:53:51.836Z,8.87
2018-06-09T19:56:20.030Z,8.13
2018-06-09T19:58:55.477Z,6.40
2018-06-09T20:01:29.259Z,8.90
2018-06-09T20:04:02.438Z,8.60
2018-06-09T20:06:30.910Z,6.73
2018-06-09T20:08:59.998Z,7.27
2018-06-09T20:11:32.102Z,9.43
2018-06-09T20:14:03.084Z,8.20
2018-06-09T20:16:34.851Z,6.00
2018-06-09T20:19:04.622Z,6.87
2018-06-09T20:21:33.345Z,8.60
2018-06-09T20:24:04.281Z,5.40
2018-06-09T20:26:33.356Z,7.77
2018-06-09T20:29:01.537Z,6.23
2018-06-09T20:31:34.979Z,6.00
2018-06-09T20:34:04.272Z,6.80
2018-06-09T20:36:32.488Z,5.90
2018-06-09T20:39:01.110Z,5.53
2018-06-09T20:41:29.306Z,5.37
2018-06-09T20:43:58.438Z,7.77
2018-06-09T20:52:12.990Z,15.70
2018-06-09T20:54:41.217Z,7.70
2018-06-09T20:57:09.501Z,6.20
2018-06-09T20:59:37.642Z,4.00
2018-06-09T21:02:05.922Z,7.00
2018-06-09T21:04:34.158Z,3.80
2018-06-09T21:07:02.365Z,4.47
2018-06-09T21:09:30.513Z,5.23
2018-06-09T21:11:58.697Z,3.43
2018-06-09T21:14:26.938Z,3.90
2018-06-09T21:16:55.238Z,3.47
2018-06-09T21:19:23.537Z,3.53
2018-06-09T21:21:51.706Z,4.00
2018-06-09T21:24:19.886Z,4.03
2018-06-09T21:26:53.409Z,4.43
2018-06-09T21:29:26.802Z,4.43
2018-06-09T21:31:54.998Z,4.50
2018-06-09T21:34:35.656Z,4.40
2018-06-09T21:37:09.329Z,3.93
2018-06-09T21:39:42.932Z,6.70
2018-06-09T21:42:16.262Z,4.63
2018-06-09T21:44:47.559Z,9.97
2018-06-09T21:47:16.054Z,3.10
2018-06-09T21:49:44.445Z,3.77
2018-06-09T21:52:12.801Z,4.83
2018-06-09T21:54:41.001Z,7.67
2018-06-09T21:57:09.241Z,4.63
2018-06-09T21:59:37.380Z,7.10
2018-06-09T22:02:05.577Z,5.47
2018-06-09T22:04:33.823Z,4.57
2018-06-09T22:07:02.020Z,3.73
2018-06-09T22:09:30.183Z,3.93
2018-06-09T22:11:58.383Z,7.17
2018-06-09T22:14:26.546Z,3.60
2018-06-09T22:16:54.740Z,3.60
2018-06-09T22:19:22.917Z,4.40
2018-06-09T22:21:51.094Z,7.13
2018-06-09T22:24:19.297Z,10.20
2018-06-09T22:26:47.498Z,5.13
2018-06-09T22:29:15.653Z,4.67
2018-06-09T22:31:43.846Z,6.77
2018-06-09T22:34:12.068Z,5.30
2018-06-09T22:36:40.244Z,5.30
2018-06-09T22:39:08.461Z,6.93
2018-06-09T22:41:36.689Z,5.80
2018-06-09T22:44:04.912Z,9.60
2018-06-09T22:46:33.164Z,5.27
2018-06-09T22:49:01.354Z,4.90
2018-06-09T22:51:29.292Z,6.27
2018-06-09T22:53:57.505Z,6.30
2018-06-09T22:56:25.741Z,3.10
2018-06-09T22:58:53.942Z,5.20
2018-06-09T23:01:22.097Z,9.50
2018-06-09T23:03:50.269Z,3.80
2018-06-09T23:06:18.500Z,3.20
2018-06-09T23:08:46.737Z,4.97
2018-06-09T23:11:14.933Z,4.07
2018-06-09T23:13:43.175Z,3.30
2018-06-09T23:16:11.358Z,5.77
2018-06-09T23:18:39.563Z,3.50
2018-06-09T23:21:07.714Z,5.03
2018-06-09T23:23:35.881Z,4.03
2018-06-09T23:26:03.797Z,3.20
2018-06-09T23:28:31.981Z,3.13
2018-06-09T23:31:00.254Z,3.80
2018-06-09T23:33:28.538Z,5.00
2018-06-09T23:35:56.701Z,6.40
2018-06-09T23:38:24.858Z,3.50
2018-06-09T23:40:53.209Z,3.10
2018-06-09T23:43:21.172Z,7.50
2018-06-09T23:45:49.382Z,3.40
2018-06-09T23:48:17.597Z,4.00
2018-06-09T23:50:45.795Z,5.87
2018-06-09T23:53:13.945Z,3.73
2018-06-09T23:55:42.185Z,3.50
2018-06-09T23:58:10.349Z,4.30
